sensor_id;sensor_type;location;lat;lon;timestamp;temperature;humidity
2929;DHT22;1474;51.460;7.150;2022-12-18T00:02:14;-4.80;99.90
2929;DHT22;1474;51.460;7.150;2022-12-18T00:04:40;-4.90;99.90
2929;DHT22;1474;51.460;7.150;2022-12-18T00:07:06;-4.90;99.90
2929;DHT22;1474;51.460;7.150;2022-12-18T00:09:31;-4.90;99.90
2929;DHT22;1474;51.460;7.150;2022-12-18T00:11:57;-5.00;99.90
2929;DHT22;1474;51.460;7.150;2022-12-18T00:14:23;-5.00;99.90
2929;DHT22;1474;51.460;7.150;2022-12-18T00:16:48;-5.00;99.90
2929;DHT22;1474;51.460;7.150;2022-12-18T00:19:14;-5.00;99.90
2929;DHT22;1474;51.460;7.150;2022-12-18T00:21:41;-5.00;99.90
2929;DHT22;1474;51.460;7.150;2022-12-18T00:24:07;-5.00;99.90
2929;DHT22;1474;51.460;7.150;2022-12-18T00:26:35;-4.90;99.90
2929;DHT22;1474;51.460;7.150;2022-12-18T00:29:03;-5.00;99.90
2929;DHT22;1474;51.460;7.150;2022-12-18T00:31:30;-5.00;99.90
2929;DHT22;1474;51.460;7.150;2022-12-18T00:33:56;-5.00;99.90
2929;DHT22;1474;51.460;7.150;2022-12-18T00:36:28;-5.10;99.90
2929;DHT22;1474;51.460;7.150;2022-12-18T00:38:55;-5.10;99.90
2929;DHT22;1474;51.460;7.150;2022-12-18T00:41:21;-5.10;99.90
2929;DHT22;1474;51.460;7.150;2022-12-18T00:44:07;-5.20;99.90
2929;DHT22;1474;51.460;7.150;2022-12-18T00:46:34;-5.20;99.90
2929;DHT22;1474;51.460;7.150;2022-12-18T00:49:00;-5.20;99.90
2929;DHT22;1474;51.460;7.150;2022-12-18T00:51:25;-5.20;99.90
2929;DHT22;1474;51.460;7.150;2022-12-18T00:53:52;-5.20;99.90
2929;DHT22;1474;51.460;7.150;2022-12-18T00:56:18;-5.30;99.90
2929;DHT22;1474;51.460;7.150;2022-12-18T00:58:46;-5.30;99.90
2929;DHT22;1474;51.460;7.150;2022-12-18T01:01:12;-5.30;99.90
2929;DHT22;1474;51.460;7.150;2022-12-18T01:03:38;-5.40;99.90
2929;DHT22;1474;51.460;7.150;2022-12-18T01:06:08;-5.40;99.90
2929;DHT22;1474;51.460;7.150;2022-12-18T01:08:34;-5.40;99.90
2929;DHT22;1474;51.460;7.150;2022-12-18T01:11:00;-5.50;99.90
2929;DHT22;1474;51.460;7.150;2022-12-18T01:13:27;-5.50;99.90
2929;DHT22;1474;51.460;7.150;2022-12-18T01:15:53;-5.40;99.90
2929;DHT22;1474;51.460;7.150;2022-12-18T01:18:18;-5.50;99.90
2929;DHT22;1474;51.460;7.150;2022-12-18T01:20:44;-5.50;99.90
2929;DHT22;1474;51.460;7.150;2022-12-18T01:23:09;-5.60;99.90
2929;DHT22;1474;51.460;7.150;2022-12-18T01:25:36;-5.60;99.90
2929;DHT22;1474;51.460;7.150;2022-12-18T01:28:02;-5.70;99.90
2929;DHT22;1474;51.460;7.150;2022-12-18T01:30:28;-5.60;99.90
2929;DHT22;1474;51.460;7.150;2022-12-18T01:32:53;-5.60;99.90
2929;DHT22;1474;51.460;7.150;2022-12-18T01:35:19;-5.50;99.90
2929;DHT22;1474;51.460;7.150;2022-12-18T01:37:44;-5.50;99.90
2929;DHT22;1474;51.460;7.150;2022-12-18T01:40:10;-5.50;99.90
2929;DHT22;1474;51.460;7.150;2022-12-18T01:42:36;-5.50;99.90
2929;DHT22;1474;51.460;7.150;2022-12-18T01:47:55;-5.50;99.90
2929;DHT22;1474;51.460;7.150;2022-12-18T01:50:36;-5.50;99.90
2929;DHT22;1474;51.460;7.150;2022-12-18T01:53:11;-5.60;99.90
2929;DHT22;1474;51.460;7.150;2022-12-18T01:55:48;-5.60;99.90
2929;DHT22;1474;51.460;7.150;2022-12-18T01:58:15;-5.60;99.90
2929;DHT22;1474;51.460;7.150;2022-12-18T02:00:41;-5.60;99.90
2929;DHT22;1474;51.460;7.150;2022-12-18T02:03:07;-5.70;99.90
2929;DHT22;1474;51.460;7.150;2022-12-18T02:05:57;-5.60;99.90
2929;DHT22;1474;51.460;7.150;2022-12-18T02:08:37;-5.60;99.90
2929;DHT22;1474;51.460;7.150;2022-12-18T02:27:44;-3.80;99.90
2929;DHT22;1474;51.460;7.150;2022-12-18T02:30:14;-3.60;99.90
2929;DHT22;1474;51.460;7.150;2022-12-18T02:32:47;-3.50;99.90
2929;DHT22;1474;51.460;7.150;2022-12-18T02:35:18;-3.40;99.90
2929;DHT22;1474;51.460;7.150;2022-12-18T02:37:46;-3.20;99.90
2929;DHT22;1474;51.460;7.150;2022-12-18T02:40:14;-3.10;99.90
2929;DHT22;1474;51.460;7.150;2022-12-18T02:42:40;-3.10;99.90
2929;DHT22;1474;51.460;7.150;2022-12-18T02:45:06;-3.00;99.90
2929;DHT22;1474;51.460;7.150;2022-12-18T02:47:35;-3.00;99.90
2929;DHT22;1474;51.460;7.150;2022-12-18T02:50:08;-2.90;99.90
2929;DHT22;1474;51.460;7.150;2022-12-18T02:52:55;-2.80;99.90
2929;DHT22;1474;51.460;7.150;2022-12-18T02:58:20;-2.70;99.90
2929;DHT22;1474;51.460;7.150;2022-12-18T03:00:59;-2.70;99.90
2929;DHT22;1474;51.460;7.150;2022-12-18T03:03:32;-2.60;99.90
2929;DHT22;1474;51.460;7.150;2022-12-18T03:06:08;-2.60;99.90
2929;DHT22;1474;51.460;7.150;2022-12-18T03:08:42;-2.50;99.90
2929;DHT22;1474;51.460;7.150;2022-12-18T03:11:10;-2.50;99.90
2929;DHT22;1474;51.460;7.150;2022-12-18T03:16:12;-2.40;99.90
2929;DHT22;1474;51.460;7.150;2022-12-18T03:18:55;-2.40;99.90
2929;DHT22;1474;51.460;7.150;2022-12-18T03:21:25;-2.40;99.90
2929;DHT22;1474;51.460;7.150;2022-12-18T03:23:52;-2.30;99.90
2929;DHT22;1474;51.460;7.150;2022-12-18T03:26:21;-2.30;99.90
2929;DHT22;1474;51.460;7.150;2022-12-18T03:28:59;-2.30;99.90
2929;DHT22;1474;51.460;7.150;2022-12-18T03:31:29;-2.20;99.90
2929;DHT22;1474;51.460;7.150;2022-12-18T03:33:59;-2.20;99.90
2929;DHT22;1474;51.460;7.150;2022-12-18T03:36:25;-2.30;99.90
2929;DHT22;1474;51.460;7.150;2022-12-18T03:38:51;-2.20;99.90
2929;DHT22;1474;51.460;7.150;2022-12-18T03:44:26;-2.10;99.90
2929;DHT22;1474;51.460;7.150;2022-12-18T03:47:14;-2.00;99.90
2929;DHT22;1474;51.460;7.150;2022-12-18T03:52:41;-2.00;99.90
2929;DHT22;1474;51.460;7.150;2022-12-18T03:55:09;-1.90;99.90
2929;DHT22;1474;51.460;7.150;2022-12-18T03:57:36;-1.90;99.90
2929;DHT22;1474;51.460;7.150;2022-12-18T04:00:11;-1.90;99.90
2929;DHT22;1474;51.460;7.150;2022-12-18T04:02:40;-1.90;99.90
2929;DHT22;1474;51.460;7.150;2022-12-18T04:05:10;-1.90;99.90
2929;DHT22;1474;51.460;7.150;2022-12-18T04:07:36;-1.90;99.90
2929;DHT22;1474;51.460;7.150;2022-12-18T04:10:05;-1.90;99.90
2929;DHT22;1474;51.460;7.150;2022-12-18T04:12:32;-1.90;99.90
2929;DHT22;1474;51.460;7.150;2022-12-18T04:14:57;-1.80;99.90
2929;DHT22;1474;51.460;7.150;2022-12-18T04:17:23;-1.80;99.90
2929;DHT22;1474;51.460;7.150;2022-12-18T04:19:49;-1.80;99.90
2929;DHT22;1474;51.460;7.150;2022-12-18T04:22:15;-1.80;99.90
2929;DHT22;1474;51.460;7.150;2022-12-18T04:24:41;-1.80;99.90
2929;DHT22;1474;51.460;7.150;2022-12-18T04:27:07;-1.80;99.90
2929;DHT22;1474;51.460;7.150;2022-12-18T04:29:32;-1.80;99.90
2929;DHT22;1474;51.460;7.150;2022-12-18T04:31:58;-1.80;99.90
2929;DHT22;1474;51.460;7.150;2022-12-18T04:34:23;-1.80;99.90
2929;DHT22;1474;51.460;7.150;2022-12-18T04:36:52;-1.80;99.90
2929;DHT22;1474;51.460;7.150;2022-12-18T04:39:18;-1.90;99.90
2929;DHT22;1474;51.460;7.150;2022-12-18T04:41:43;-1.80;99.90
2929;DHT22;1474;51.460;7.150;2022-12-18T04:44:09;-1.80;99.90
2929;DHT22;1474;51.460;7.150;2022-12-18T04:46:35;-1.80;99.90
2929;DHT22;1474;51.460;7.150;2022-12-18T04:49:01;-1.90;99.90
2929;DHT22;1474;51.460;7.150;2022-12-18T04:51:26;-1.90;99.90
2929;DHT22;1474;51.460;7.150;2022-12-18T04:53:52;-1.90;99.90
2929;DHT22;1474;51.460;7.150;2022-12-18T04:56:18;-2.00;99.90
2929;DHT22;1474;51.460;7.150;2022-12-18T04:58:44;-2.00;99.90
2929;DHT22;1474;51.460;7.150;2022-12-18T05:01:10;-2.00;99.90
2929;DHT22;1474;51.460;7.150;2022-12-18T05:03:37;-2.00;99.90
2929;DHT22;1474;51.460;7.150;2022-12-18T05:06:04;-2.00;99.90
2929;DHT22;1474;51.460;7.150;2022-12-18T05:08:30;-2.00;99.90
2929;DHT22;1474;51.460;7.150;2022-12-18T05:11:07;-2.00;99.90
2929;DHT22;1474;51.460;7.150;2022-12-18T05:13:34;-2.00;99.90
2929;DHT22;1474;51.460;7.150;2022-12-18T05:16:00;-2.00;99.90
2929;DHT22;1474;51.460;7.150;2022-12-18T05:18:26;-2.00;99.90
2929;DHT22;1474;51.460;7.150;2022-12-18T05:20:52;-1.90;99.90
2929;DHT22;1474;51.460;7.150;2022-12-18T05:23:19;-2.00;99.90
2929;DHT22;1474;51.460;7.150;2022-12-18T05:25:59;-1.90;99.90
2929;DHT22;1474;51.460;7.150;2022-12-18T05:28:27;-1.90;99.90
2929;DHT22;1474;51.460;7.150;2022-12-18T05:30:56;-1.80;99.90
2929;DHT22;1474;51.460;7.150;2022-12-18T05:33:24;-1.80;99.90
2929;DHT22;1474;51.460;7.150;2022-12-18T05:35:55;-1.80;99.90
2929;DHT22;1474;51.460;7.150;2022-12-18T05:38:22;-1.80;99.90
2929;DHT22;1474;51.460;7.150;2022-12-18T05:40:49;-1.80;99.90
2929;DHT22;1474;51.460;7.150;2022-12-18T05:43:15;-1.90;99.90
2929;DHT22;1474;51.460;7.150;2022-12-18T05:45:41;-1.80;99.90
2929;DHT22;1474;51.460;7.150;2022-12-18T05:48:08;-1.80;99.90
2929;DHT22;1474;51.460;7.150;2022-12-18T05:50:44;-1.80;99.90
2929;DHT22;1474;51.460;7.150;2022-12-18T05:53:11;-1.80;99.90
2929;DHT22;1474;51.460;7.150;2022-12-18T05:55:39;-1.80;99.90
2929;DHT22;1474;51.460;7.150;2022-12-18T05:58:06;-1.80;99.90
2929;DHT22;1474;51.460;7.150;2022-12-18T06:00:33;-1.70;99.90
2929;DHT22;1474;51.460;7.150;2022-12-18T06:03:00;-1.70;99.90
2929;DHT22;1474;51.460;7.150;2022-12-18T06:05:26;-1.70;99.90
2929;DHT22;1474;51.460;7.150;2022-12-18T06:07:52;-1.70;99.90
2929;DHT22;1474;51.460;7.150;2022-12-18T06:10:18;-1.70;99.90
2929;DHT22;1474;51.460;7.150;2022-12-18T06:12:44;-1.70;99.90
2929;DHT22;1474;51.460;7.150;2022-12-18T06:15:10;-1.60;99.90
2929;DHT22;1474;51.460;7.150;2022-12-18T06:17:36;-1.70;99.90
2929;DHT22;1474;51.460;7.150;2022-12-18T06:20:02;-1.60;99.90
2929;DHT22;1474;51.460;7.150;2022-12-18T06:22:30;-1.60;99.90
2929;DHT22;1474;51.460;7.150;2022-12-18T06:24:57;-1.60;99.90
2929;DHT22;1474;51.460;7.150;2022-12-18T06:27:22;-1.60;99.90
2929;DHT22;1474;51.460;7.150;2022-12-18T06:29:48;-1.60;99.90
2929;DHT22;1474;51.460;7.150;2022-12-18T06:32:13;-1.60;99.90
2929;DHT22;1474;51.460;7.150;2022-12-18T06:34:40;-1.60;99.90
2929;DHT22;1474;51.460;7.150;2022-12-18T06:37:05;-1.80;99.90
2929;DHT22;1474;51.460;7.150;2022-12-18T06:39:31;-1.90;99.90
2929;DHT22;1474;51.460;7.150;2022-12-18T06:41:57;-1.90;99.90
2929;DHT22;1474;51.460;7.150;2022-12-18T06:44:22;-2.10;99.90
2929;DHT22;1474;51.460;7.150;2022-12-18T06:46:51;-2.10;99.90
2929;DHT22;1474;51.460;7.150;2022-12-18T06:49:16;-2.20;99.90
2929;DHT22;1474;51.460;7.150;2022-12-18T06:51:42;-2.30;99.90
2929;DHT22;1474;51.460;7.150;2022-12-18T06:54:08;-2.40;99.90
2929;DHT22;1474;51.460;7.150;2022-12-18T06:56:34;-2.50;99.90
2929;DHT22;1474;51.460;7.150;2022-12-18T06:59:00;-2.60;99.90
2929;DHT22;1474;51.460;7.150;2022-12-18T07:01:26;-2.60;99.90
2929;DHT22;1474;51.460;7.150;2022-12-18T07:03:53;-2.70;99.90
2929;DHT22;1474;51.460;7.150;2022-12-18T07:06:21;-2.80;99.90
2929;DHT22;1474;51.460;7.150;2022-12-18T07:08:48;-2.80;99.90
2929;DHT22;1474;51.460;7.150;2022-12-18T07:11:14;-2.70;99.90
2929;DHT22;1474;51.460;7.150;2022-12-18T07:13:39;-2.70;99.90
2929;DHT22;1474;51.460;7.150;2022-12-18T07:16:11;-2.60;99.90
2929;DHT22;1474;51.460;7.150;2022-12-18T07:18:37;-2.60;99.90
2929;DHT22;1474;51.460;7.150;2022-12-18T07:21:04;-2.50;99.90
2929;DHT22;1474;51.460;7.150;2022-12-18T07:23:31;-2.40;99.90
2929;DHT22;1474;51.460;7.150;2022-12-18T07:26:03;-2.40;99.90
2929;DHT22;1474;51.460;7.150;2022-12-18T07:28:30;-2.30;99.90
2929;DHT22;1474;51.460;7.150;2022-12-18T07:30:56;-2.20;99.90
2929;DHT22;1474;51.460;7.150;2022-12-18T07:33:21;-2.20;99.90
2929;DHT22;1474;51.460;7.150;2022-12-18T07:35:47;-2.10;99.90
2929;DHT22;1474;51.460;7.150;2022-12-18T07:38:12;-2.10;99.90
2929;DHT22;1474;51.460;7.150;2022-12-18T07:40:38;-2.10;99.90
2929;DHT22;1474;51.460;7.150;2022-12-18T07:43:04;-2.00;99.90
2929;DHT22;1474;51.460;7.150;2022-12-18T07:45:29;-1.90;99.90
2929;DHT22;1474;51.460;7.150;2022-12-18T07:47:55;-1.80;99.90
2929;DHT22;1474;51.460;7.150;2022-12-18T07:50:20;-1.70;99.90
2929;DHT22;1474;51.460;7.150;2022-12-18T07:52:46;-1.70;99.90
2929;DHT22;1474;51.460;7.150;2022-12-18T07:55:12;-1.70;99.90
2929;DHT22;1474;51.460;7.150;2022-12-18T07:57:37;-1.60;99.90
2929;DHT22;1474;51.460;7.150;2022-12-18T08:00:04;-1.60;99.90
2929;DHT22;1474;51.460;7.150;2022-12-18T08:02:32;-1.60;99.90
2929;DHT22;1474;51.460;7.150;2022-12-18T08:04:58;-1.50;99.90
2929;DHT22;1474;51.460;7.150;2022-12-18T08:07:23;-1.50;99.90
2929;DHT22;1474;51.460;7.150;2022-12-18T08:09:49;-1.50;99.90
2929;DHT22;1474;51.460;7.150;2022-12-18T08:12:15;-1.50;99.90
2929;DHT22;1474;51.460;7.150;2022-12-18T08:14:40;-1.40;99.90
2929;DHT22;1474;51.460;7.150;2022-12-18T08:17:06;-1.40;99.90
2929;DHT22;1474;51.460;7.150;2022-12-18T08:19:34;-1.40;99.90
2929;DHT22;1474;51.460;7.150;2022-12-18T08:22:00;-1.30;99.90
2929;DHT22;1474;51.460;7.150;2022-12-18T08:24:26;-1.30;99.90
2929;DHT22;1474;51.460;7.150;2022-12-18T08:26:51;-1.30;99.90
2929;DHT22;1474;51.460;7.150;2022-12-18T08:29:17;-1.30;99.90
2929;DHT22;1474;51.460;7.150;2022-12-18T08:31:42;-1.40;99.90
2929;DHT22;1474;51.460;7.150;2022-12-18T08:34:08;-1.40;99.90
2929;DHT22;1474;51.460;7.150;2022-12-18T08:36:34;-1.50;99.90
2929;DHT22;1474;51.460;7.150;2022-12-18T08:39:00;-1.50;99.90
2929;DHT22;1474;51.460;7.150;2022-12-18T08:41:25;-1.60;99.90
2929;DHT22;1474;51.460;7.150;2022-12-18T08:43:51;-1.60;99.90
2929;DHT22;1474;51.460;7.150;2022-12-18T08:46:38;-1.60;99.90
2929;DHT22;1474;51.460;7.150;2022-12-18T08:49:04;-1.60;99.90
2929;DHT22;1474;51.460;7.150;2022-12-18T08:51:30;-1.50;99.90
2929;DHT22;1474;51.460;7.150;2022-12-18T08:53:56;-1.40;99.90
2929;DHT22;1474;51.460;7.150;2022-12-18T08:56:22;-1.40;99.90
2929;DHT22;1474;51.460;7.150;2022-12-18T08:58:50;-1.20;99.90
2929;DHT22;1474;51.460;7.150;2022-12-18T09:01:16;-1.00;99.90
2929;DHT22;1474;51.460;7.150;2022-12-18T09:03:41;-0.60;99.90
2929;DHT22;1474;51.460;7.150;2022-12-18T09:06:07;-0.20;99.90
2929;DHT22;1474;51.460;7.150;2022-12-18T09:08:36;0.00;99.90
2929;DHT22;1474;51.460;7.150;2022-12-18T09:11:04;0.30;99.90
2929;DHT22;1474;51.460;7.150;2022-12-18T09:13:30;0.60;99.90
2929;DHT22;1474;51.460;7.150;2022-12-18T09:15:55;0.80;99.90
2929;DHT22;1474;51.460;7.150;2022-12-18T09:18:23;1.10;99.90
2929;DHT22;1474;51.460;7.150;2022-12-18T09:20:49;1.20;99.20
2929;DHT22;1474;51.460;7.150;2022-12-18T09:23:17;1.40;99.30
2929;DHT22;1474;51.460;7.150;2022-12-18T09:25:42;1.40;99.10
2929;DHT22;1474;51.460;7.150;2022-12-18T09:28:16;1.60;98.20
2929;DHT22;1474;51.460;7.150;2022-12-18T09:30:44;1.60;98.20
2929;DHT22;1474;51.460;7.150;2022-12-18T09:33:11;1.70;98.30
2929;DHT22;1474;51.460;7.150;2022-12-18T09:35:37;1.70;98.20
2929;DHT22;1474;51.460;7.150;2022-12-18T09:38:06;1.90;97.20
2929;DHT22;1474;51.460;7.150;2022-12-18T09:40:52;1.90;97.90
2929;DHT22;1474;51.460;7.150;2022-12-18T09:43:26;2.10;98.40
2929;DHT22;1474;51.460;7.150;2022-12-18T09:45:57;2.20;96.70
2929;DHT22;1474;51.460;7.150;2022-12-18T09:48:28;2.20;96.90
2929;DHT22;1474;51.460;7.150;2022-12-18T09:51:59;2.30;95.80
2929;DHT22;1474;51.460;7.150;2022-12-18T09:53:58;2.30;96.30
2929;DHT22;1474;51.460;7.150;2022-12-18T09:56:28;2.40;96.80
2929;DHT22;1474;51.460;7.150;2022-12-18T09:59:01;2.40;96.30
2929;DHT22;1474;51.460;7.150;2022-12-18T10:01:28;2.50;96.00
2929;DHT22;1474;51.460;7.150;2022-12-18T10:03:55;2.50;95.50
2929;DHT22;1474;51.460;7.150;2022-12-18T10:17:23;2.60;95.50
2929;DHT22;1474;51.460;7.150;2022-12-18T10:20:16;2.70;94.30
2929;DHT22;1474;51.460;7.150;2022-12-18T10:22:53;2.70;95.40
2929;DHT22;1474;51.460;7.150;2022-12-18T10:28:15;2.80;95.80
2929;DHT22;1474;51.460;7.150;2022-12-18T10:30:42;2.80;93.20
2929;DHT22;1474;51.460;7.150;2022-12-18T10:33:17;2.80;94.60
2929;DHT22;1474;51.460;7.150;2022-12-18T10:35:44;2.90;93.90
2929;DHT22;1474;51.460;7.150;2022-12-18T10:43:20;3.10;94.30
2929;DHT22;1474;51.460;7.150;2022-12-18T10:46:02;3.20;92.90
2929;DHT22;1474;51.460;7.150;2022-12-18T10:48:32;3.20;93.50
2929;DHT22;1474;51.460;7.150;2022-12-18T10:50:58;3.10;92.60
2929;DHT22;1474;51.460;7.150;2022-12-18T10:53:29;3.10;92.80
2929;DHT22;1474;51.460;7.150;2022-12-18T10:55:58;3.20;93.10
2929;DHT22;1474;51.460;7.150;2022-12-18T10:58:32;3.20;93.40
2929;DHT22;1474;51.460;7.150;2022-12-18T11:01:16;3.20;93.20
2929;DHT22;1474;51.460;7.150;2022-12-18T11:04:08;3.30;93.60
2929;DHT22;1474;51.460;7.150;2022-12-18T11:06:32;3.30;93.00
2929;DHT22;1474;51.460;7.150;2022-12-18T11:09:09;3.30;93.60
2929;DHT22;1474;51.460;7.150;2022-12-18T11:11:49;3.30;92.80
2929;DHT22;1474;51.460;7.150;2022-12-18T11:14:24;3.30;91.90
2929;DHT22;1474;51.460;7.150;2022-12-18T11:16:52;3.30;92.10
2929;DHT22;1474;51.460;7.150;2022-12-18T11:19:33;3.40;92.60
2929;DHT22;1474;51.460;7.150;2022-12-18T11:22:01;3.50;92.50
2929;DHT22;1474;51.460;7.150;2022-12-18T11:24:31;3.50;93.90
2929;DHT22;1474;51.460;7.150;2022-12-18T11:27:02;3.50;91.90
2929;DHT22;1474;51.460;7.150;2022-12-18T11:29:37;3.50;91.90
2929;DHT22;1474;51.460;7.150;2022-12-18T11:32:26;3.50;92.10
2929;DHT22;1474;51.460;7.150;2022-12-18T11:34:59;3.50;92.90
2929;DHT22;1474;51.460;7.150;2022-12-18T11:37:30;3.50;92.10
2929;DHT22;1474;51.460;7.150;2022-12-18T11:40:01;3.60;93.10
2929;DHT22;1474;51.460;7.150;2022-12-18T11:42:32;3.60;93.50
2929;DHT22;1474;51.460;7.150;2022-12-18T11:45:08;3.70;93.10
2929;DHT22;1474;51.460;7.150;2022-12-18T11:48:14;3.80;92.90
2929;DHT22;1474;51.460;7.150;2022-12-18T11:50:53;3.80;92.00
2929;DHT22;1474;51.460;7.150;2022-12-18T11:53:20;3.90;92.20
2929;DHT22;1474;51.460;7.150;2022-12-18T12:07:02;3.80;91.70
2929;DHT22;1474;51.460;7.150;2022-12-18T12:18:27;4.00;93.40
2929;DHT22;1474;51.460;7.150;2022-12-18T12:21:06;4.00;92.50
2929;DHT22;1474;51.460;7.150;2022-12-18T12:24:10;3.90;90.40
2929;DHT22;1474;51.460;7.150;2022-12-18T12:27:18;3.90;91.00
2929;DHT22;1474;51.460;7.150;2022-12-18T12:35:32;3.90;88.20
2929;DHT22;1474;51.460;7.150;2022-12-18T12:38:10;3.90;89.80
2929;DHT22;1474;51.460;7.150;2022-12-18T12:40:45;3.90;90.30
2929;DHT22;1474;51.460;7.150;2022-12-18T12:43:27;3.90;89.40
2929;DHT22;1474;51.460;7.150;2022-12-18T12:46:00;3.90;91.00
2929;DHT22;1474;51.460;7.150;2022-12-18T12:49:15;3.90;90.30
2929;DHT22;1474;51.460;7.150;2022-12-18T12:51:26;3.90;90.40
2929;DHT22;1474;51.460;7.150;2022-12-18T12:53:54;3.90;90.00
2929;DHT22;1474;51.460;7.150;2022-12-18T12:56:22;3.90;88.80
2929;DHT22;1474;51.460;7.150;2022-12-18T13:07:05;4.10;91.10
2929;DHT22;1474;51.460;7.150;2022-12-18T13:09:32;4.20;91.70
2929;DHT22;1474;51.460;7.150;2022-12-18T13:12:10;4.20;90.70
2929;DHT22;1474;51.460;7.150;2022-12-18T13:15:12;4.20;91.20
2929;DHT22;1474;51.460;7.150;2022-12-18T13:17:39;4.20;90.50
2929;DHT22;1474;51.460;7.150;2022-12-18T13:23:19;4.10;91.20
2929;DHT22;1474;51.460;7.150;2022-12-18T13:25:45;3.90;92.40
2929;DHT22;1474;51.460;7.150;2022-12-18T13:28:15;3.90;92.60
2929;DHT22;1474;51.460;7.150;2022-12-18T13:30:47;3.90;92.50
2929;DHT22;1474;51.460;7.150;2022-12-18T13:38:23;3.80;93.40
2929;DHT22;1474;51.460;7.150;2022-12-18T13:43:31;3.60;94.10
2929;DHT22;1474;51.460;7.150;2022-12-18T13:46:23;3.50;93.60
2929;DHT22;1474;51.460;7.150;2022-12-18T13:51:26;3.30;94.60
2929;DHT22;1474;51.460;7.150;2022-12-18T13:54:00;3.20;95.20
2929;DHT22;1474;51.460;7.150;2022-12-18T13:56:31;3.20;95.00
2929;DHT22;1474;51.460;7.150;2022-12-18T13:59:33;3.20;95.30
2929;DHT22;1474;51.460;7.150;2022-12-18T14:02:07;3.10;95.40
2929;DHT22;1474;51.460;7.150;2022-12-18T14:04:35;3.10;95.50
2929;DHT22;1474;51.460;7.150;2022-12-18T14:07:09;3.10;96.30
2929;DHT22;1474;51.460;7.150;2022-12-18T14:09:40;3.10;96.00
2929;DHT22;1474;51.460;7.150;2022-12-18T14:12:06;3.00;96.70
2929;DHT22;1474;51.460;7.150;2022-12-18T14:14:52;3.00;96.50
2929;DHT22;1474;51.460;7.150;2022-12-18T14:17:18;2.90;96.80
2929;DHT22;1474;51.460;7.150;2022-12-18T14:19:50;2.90;97.20
2929;DHT22;1474;51.460;7.150;2022-12-18T14:22:20;2.80;97.60
2929;DHT22;1474;51.460;7.150;2022-12-18T14:24:46;2.80;97.30
2929;DHT22;1474;51.460;7.150;2022-12-18T14:27:20;2.70;96.50
2929;DHT22;1474;51.460;7.150;2022-12-18T14:29:46;2.70;97.40
2929;DHT22;1474;51.460;7.150;2022-12-18T14:32:14;2.60;97.20
2929;DHT22;1474;51.460;7.150;2022-12-18T14:34:43;2.60;97.90
2929;DHT22;1474;51.460;7.150;2022-12-18T14:37:10;2.50;97.70
2929;DHT22;1474;51.460;7.150;2022-12-18T14:39:40;2.40;97.50
2929;DHT22;1474;51.460;7.150;2022-12-18T14:42:09;2.50;97.70
2929;DHT22;1474;51.460;7.150;2022-12-18T14:44:35;2.40;97.90
2929;DHT22;1474;51.460;7.150;2022-12-18T14:47:00;2.40;98.10
2929;DHT22;1474;51.460;7.150;2022-12-18T14:49:33;2.40;98.20
2929;DHT22;1474;51.460;7.150;2022-12-18T14:52:04;2.40;97.90
2929;DHT22;1474;51.460;7.150;2022-12-18T14:54:31;2.40;98.20
2929;DHT22;1474;51.460;7.150;2022-12-18T14:57:11;2.40;98.40
2929;DHT22;1474;51.460;7.150;2022-12-18T14:59:41;2.40;98.40
2929;DHT22;1474;51.460;7.150;2022-12-18T15:02:15;2.40;98.30
2929;DHT22;1474;51.460;7.150;2022-12-18T15:04:43;2.30;98.50
2929;DHT22;1474;51.460;7.150;2022-12-18T15:07:20;2.30;98.20
2929;DHT22;1474;51.460;7.150;2022-12-18T15:20:54;2.30;98.70
2929;DHT22;1474;51.460;7.150;2022-12-18T15:23:21;2.20;98.80
2929;DHT22;1474;51.460;7.150;2022-12-18T15:26:07;2.30;98.40
2929;DHT22;1474;51.460;7.150;2022-12-18T15:28:47;2.20;98.30
2929;DHT22;1474;51.460;7.150;2022-12-18T15:36:18;2.20;98.80
2929;DHT22;1474;51.460;7.150;2022-12-18T15:38:48;2.20;98.70
2929;DHT22;1474;51.460;7.150;2022-12-18T15:41:19;2.20;98.10
2929;DHT22;1474;51.460;7.150;2022-12-18T15:43:49;2.20;98.70
2929;DHT22;1474;51.460;7.150;2022-12-18T15:46:18;2.20;98.40
2929;DHT22;1474;51.460;7.150;2022-12-18T15:48:49;2.10;98.70
2929;DHT22;1474;51.460;7.150;2022-12-18T15:51:18;2.10;99.00
2929;DHT22;1474;51.460;7.150;2022-12-18T15:53:46;2.20;99.20
2929;DHT22;1474;51.460;7.150;2022-12-18T15:56:12;2.20;99.30
2929;DHT22;1474;51.460;7.150;2022-12-18T15:58:57;2.10;99.50
2929;DHT22;1474;51.460;7.150;2022-12-18T16:01:25;2.10;99.60
2929;DHT22;1474;51.460;7.150;2022-12-18T16:03:51;2.10;99.90
2929;DHT22;1474;51.460;7.150;2022-12-18T16:06:16;2.10;99.90
2929;DHT22;1474;51.460;7.150;2022-12-18T16:08:42;2.10;99.90
2929;DHT22;1474;51.460;7.150;2022-12-18T16:11:28;2.10;99.90
2929;DHT22;1474;51.460;7.150;2022-12-18T16:14:25;2.10;99.90
2929;DHT22;1474;51.460;7.150;2022-12-18T16:17:00;1.90;99.90
2929;DHT22;1474;51.460;7.150;2022-12-18T16:19:26;1.90;99.90
2929;DHT22;1474;51.460;7.150;2022-12-18T16:21:55;1.90;99.90
2929;DHT22;1474;51.460;7.150;2022-12-18T16:24:24;1.80;99.90
2929;DHT22;1474;51.460;7.150;2022-12-18T16:26:50;1.80;99.90
2929;DHT22;1474;51.460;7.150;2022-12-18T16:29:23;1.80;99.90
2929;DHT22;1474;51.460;7.150;2022-12-18T16:31:53;1.80;99.90
2929;DHT22;1474;51.460;7.150;2022-12-18T16:34:20;1.80;99.90
2929;DHT22;1474;51.460;7.150;2022-12-18T16:36:51;1.90;99.90
2929;DHT22;1474;51.460;7.150;2022-12-18T16:39:17;1.90;99.90
2929;DHT22;1474;51.460;7.150;2022-12-18T16:41:43;1.90;99.90
2929;DHT22;1474;51.460;7.150;2022-12-18T16:44:09;1.80;99.90
2929;DHT22;1474;51.460;7.150;2022-12-18T16:46:35;1.90;99.90
2929;DHT22;1474;51.460;7.150;2022-12-18T16:49:01;1.90;99.90
2929;DHT22;1474;51.460;7.150;2022-12-18T16:51:27;1.90;99.90
2929;DHT22;1474;51.460;7.150;2022-12-18T16:53:54;1.80;99.90
2929;DHT22;1474;51.460;7.150;2022-12-18T16:56:20;1.80;99.90
2929;DHT22;1474;51.460;7.150;2022-12-18T16:58:56;1.70;99.90
2929;DHT22;1474;51.460;7.150;2022-12-18T17:01:22;1.70;99.90
2929;DHT22;1474;51.460;7.150;2022-12-18T17:03:56;1.80;99.90
2929;DHT22;1474;51.460;7.150;2022-12-18T17:06:23;1.70;99.90
2929;DHT22;1474;51.460;7.150;2022-12-18T17:09:05;1.70;99.90
2929;DHT22;1474;51.460;7.150;2022-12-18T17:11:32;1.70;99.90
2929;DHT22;1474;51.460;7.150;2022-12-18T17:13:59;1.70;99.90
2929;DHT22;1474;51.460;7.150;2022-12-18T17:16:25;1.70;99.90
2929;DHT22;1474;51.460;7.150;2022-12-18T17:18:52;1.60;99.90
2929;DHT22;1474;51.460;7.150;2022-12-18T17:21:18;1.60;99.90
2929;DHT22;1474;51.460;7.150;2022-12-18T17:23:44;1.60;99.90
2929;DHT22;1474;51.460;7.150;2022-12-18T17:26:10;1.60;99.90
2929;DHT22;1474;51.460;7.150;2022-12-18T17:28:37;1.60;99.90
2929;DHT22;1474;51.460;7.150;2022-12-18T17:31:11;1.50;99.90
2929;DHT22;1474;51.460;7.150;2022-12-18T17:33:37;1.50;99.90
2929;DHT22;1474;51.460;7.150;2022-12-18T17:36:03;1.50;99.90
2929;DHT22;1474;51.460;7.150;2022-12-18T17:38:28;1.50;99.90
2929;DHT22;1474;51.460;7.150;2022-12-18T17:41:02;1.50;99.90
2929;DHT22;1474;51.460;7.150;2022-12-18T17:43:28;1.50;99.90
2929;DHT22;1474;51.460;7.150;2022-12-18T17:45:54;1.50;99.90
2929;DHT22;1474;51.460;7.150;2022-12-18T17:48:19;1.50;99.90
2929;DHT22;1474;51.460;7.150;2022-12-18T17:50:45;1.50;99.90
2929;DHT22;1474;51.460;7.150;2022-12-18T17:53:11;1.50;99.90
2929;DHT22;1474;51.460;7.150;2022-12-18T17:55:36;1.30;99.90
2929;DHT22;1474;51.460;7.150;2022-12-18T17:58:02;1.40;99.90
2929;DHT22;1474;51.460;7.150;2022-12-18T18:00:28;1.30;99.90
2929;DHT22;1474;51.460;7.150;2022-12-18T18:02:54;1.30;99.90
2929;DHT22;1474;51.460;7.150;2022-12-18T18:05:19;1.30;99.90
2929;DHT22;1474;51.460;7.150;2022-12-18T18:07:45;1.40;99.90
2929;DHT22;1474;51.460;7.150;2022-12-18T18:10:11;1.30;99.90
2929;DHT22;1474;51.460;7.150;2022-12-18T18:12:36;1.20;99.90
2929;DHT22;1474;51.460;7.150;2022-12-18T18:15:21;1.30;99.90
2929;DHT22;1474;51.460;7.150;2022-12-18T18:17:46;1.30;99.90
2929;DHT22;1474;51.460;7.150;2022-12-18T18:20:12;1.20;99.90